createdAt,value
2019-01-08T00:02:05.353Z,23.37
2019-01-08T00:04:12.823Z,24.77
2019-01-08T00:06:24.790Z,23.67
2019-01-08T00:08:34.835Z,21.97
2019-01-08T00:10:43.413Z,22.23
2019-01-08T00:12:58.528Z,23.70
2019-01-08T00:15:05.943Z,25.40
2019-01-08T00:17:15.544Z,21.93
2019-01-08T00:19:33.182Z,22.17
2019-01-08T00:21:37.965Z,20.77
2019-01-08T00:23:54.594Z,22.23
2019-01-08T00:26:06.106Z,24.00
2019-01-08T00:28:15.942Z,19.90
2019-01-08T00:30:36.439Z,23.20
2019-01-08T00:32:42.118Z,22.40
2019-01-08T00:34:51.880Z,18.63
2019-01-08T00:37:12.960Z,20.97
2019-01-08T00:39:27.255Z,20.70
2019-01-08T00:41:47.158Z,21.40
2019-01-08T00:44:01.120Z,19.50
2019-01-08T00:46:13.475Z,20.20
2019-01-08T00:48:24.386Z,19.60
2019-01-08T00:50:44.894Z,17.60
2019-01-08T00:53:02.054Z,19.53
2019-01-08T00:55:09.988Z,18.43
2019-01-08T00:57:31.759Z,17.73
2019-01-08T00:59:42.387Z,18.30
2019-01-08T01:01:56.672Z,19.83
2019-01-08T01:04:05.865Z,19.60
2019-01-08T01:06:25.224Z,18.40
2019-01-08T01:08:37.824Z,20.00
2019-01-08T01:10:45.208Z,18.03
2019-01-08T01:12:56.615Z,18.70
2019-01-08T01:15:04.908Z,15.30
2019-01-08T01:17:15.489Z,16.93
2019-01-08T01:19:25.719Z,17.00
2019-01-08T01:21:31.959Z,16.17
2019-01-08T01:23:42.064Z,16.33
2019-01-08T01:25:53.629Z,17.27
2019-01-08T01:28:10.930Z,17.70
2019-01-08T01:30:36.713Z,16.47
2019-01-08T01:32:44.034Z,17.97
2019-01-08T01:34:59.859Z,16.00
2019-01-08T01:37:20.936Z,16.00
2019-01-08T01:39:36.985Z,16.30
2019-01-08T01:41:52.709Z,15.37
2019-01-08T01:44:04.054Z,15.63
2019-01-08T01:46:17.996Z,15.33
2019-01-08T01:48:31.719Z,15.70
2019-01-08T01:50:39.826Z,13.93
2019-01-08T01:52:54.714Z,13.63
2019-01-08T01:55:08.856Z,14.00
2019-01-08T01:57:31.497Z,12.63
2019-01-08T01:59:45.286Z,11.67
2019-01-08T02:01:58.104Z,11.90
2019-01-08T02:04:23.780Z,11.03
2019-01-08T02:06:35.383Z,8.67
2019-01-08T02:08:44.371Z,7.87
2019-01-08T02:10:53.074Z,7.77
2019-01-08T02:12:59.200Z,6.03
2019-01-08T02:15:17.155Z,4.57
2019-01-08T02:17:51.248Z,4.77
2019-01-08T02:22:36.322Z,3.90
2019-01-08T02:24:44.300Z,3.53
2019-01-08T02:26:53.758Z,3.73
2019-01-08T02:29:06.422Z,3.77
2019-01-08T02:31:17.686Z,3.63
2019-01-08T02:33:34.116Z,3.90
2019-01-08T02:35:58.098Z,4.20
2019-01-08T02:38:15.507Z,4.13
2019-01-08T02:40:25.389Z,3.43
2019-01-08T02:42:43.165Z,4.60
2019-01-08T02:45:00.026Z,3.27
2019-01-08T02:47:17.817Z,3.73
2019-01-08T02:49:31.173Z,3.30
2019-01-08T02:51:41.091Z,6.40
2019-01-08T02:53:54.948Z,4.37
2019-01-08T02:56:01.602Z,2.80
2019-01-08T02:58:10.518Z,3.43
2019-01-08T03:00:32.913Z,4.40
2019-01-08T03:02:40.445Z,3.17
2019-01-08T03:04:51.858Z,3.40
2019-01-08T03:07:08.102Z,6.57
2019-01-08T03:09:39.379Z,4.37
2019-01-08T03:11:50.964Z,4.43
2019-01-08T03:14:05.710Z,3.93
2019-01-08T03:16:10.356Z,4.07
2019-01-08T03:18:32.067Z,3.57
2019-01-08T03:21:03.958Z,3.83
2019-01-08T03:23:16.390Z,3.90
2019-01-08T03:25:46.635Z,5.80
2019-01-08T03:27:59.161Z,3.40
2019-01-08T03:30:30.936Z,3.83
2019-01-08T03:32:44.627Z,5.33
2019-01-08T03:35:18.432Z,5.87
2019-01-08T03:37:36.301Z,3.60
2019-01-08T03:39:48.648Z,3.37
2019-01-08T03:42:05.722Z,3.93
2019-01-08T03:44:24.064Z,4.33
2019-01-08T03:46:30.620Z,4.03
2019-01-08T03:48:39.403Z,3.57
2019-01-08T03:50:55.516Z,5.17
2019-01-08T03:55:35.251Z,4.03
2019-01-08T03:57:50.508Z,5.07
2019-01-08T04:00:04.903Z,3.93
2019-01-08T04:02:21.510Z,3.20
2019-01-08T04:04:34.716Z,3.30
2019-01-08T04:06:57.211Z,3.77
2019-01-08T04:09:23.231Z,3.83
2019-01-08T04:11:35.844Z,3.00
2019-01-08T04:14:05.981Z,4.27
2019-01-08T04:16:23.270Z,5.17
2019-01-08T04:18:31.390Z,8.53
2019-01-08T04:20:46.933Z,9.13
2019-01-08T04:23:02.879Z,12.10
2019-01-08T04:25:20.898Z,12.97
2019-01-08T04:27:34.537Z,8.13
2019-01-08T04:29:50.239Z,12.13
2019-01-08T04:31:53.305Z,14.07
2019-01-08T04:34:05.103Z,12.47
2019-01-08T04:36:24.105Z,10.20
2019-01-08T04:38:40.882Z,14.53
2019-01-08T04:40:49.454Z,12.70
2019-01-08T04:43:13.229Z,10.67
2019-01-08T04:45:42.848Z,9.03
2019-01-08T04:48:01.892Z,13.50
2019-01-08T04:50:51.832Z,7.97
2019-01-08T04:53:06.649Z,11.23
2019-01-08T04:55:29.302Z,14.20
2019-01-08T04:57:42.060Z,17.77
2019-01-08T04:59:59.352Z,10.67
2019-01-08T05:02:31.993Z,11.10
2019-01-08T05:04:52.573Z,15.27
2019-01-08T05:07:15.692Z,12.33
2019-01-08T05:09:27.675Z,14.27
2019-01-08T05:11:55.813Z,16.30
2019-01-08T05:14:08.805Z,13.23
2019-01-08T05:16:23.679Z,12.33
2019-01-08T05:18:42.880Z,10.87
2019-01-08T05:21:00.013Z,14.23
2019-01-08T05:23:18.611Z,15.90
2019-01-08T05:25:34.881Z,16.23
2019-01-08T05:27:51.131Z,15.47
2019-01-08T05:30:07.800Z,14.07
2019-01-08T05:32:20.289Z,17.43
2019-01-08T05:34:38.838Z,14.83
2019-01-08T05:36:52.741Z,13.70
2019-01-08T05:39:12.410Z,18.30
2019-01-08T05:41:27.848Z,13.37
2019-01-08T05:43:46.408Z,10.70
2019-01-08T05:46:03.384Z,18.53
2019-01-08T05:48:17.174Z,10.63
2019-01-08T05:50:34.710Z,14.67
2019-01-08T05:52:50.722Z,13.27
2019-01-08T05:55:04.719Z,12.40
2019-01-08T05:57:24.087Z,11.57
2019-01-08T05:59:44.341Z,10.50
2019-01-08T06:01:57.688Z,19.17
2019-01-08T06:04:13.913Z,18.90
2019-01-08T06:06:32.192Z,10.97
2019-01-08T06:09:01.961Z,14.33
2019-01-08T06:11:17.331Z,13.77
2019-01-08T06:13:26.634Z,12.37
2019-01-08T06:15:38.217Z,16.50
2019-01-08T06:18:11.434Z,15.30
2019-01-08T06:20:35.005Z,12.00
2019-01-08T06:23:01.415Z,13.87
2019-01-08T06:25:22.233Z,14.57
2019-01-08T06:27:30.713Z,14.33
2019-01-08T06:29:50.723Z,16.43
2019-01-08T06:32:12.192Z,14.77
2019-01-08T06:34:24.129Z,19.17
2019-01-08T06:36:40.989Z,21.00
2019-01-08T06:39:09.519Z,18.77
2019-01-08T06:41:22.474Z,13.80
2019-01-08T06:43:37.339Z,11.17
2019-01-08T06:45:55.809Z,18.57
2019-01-08T06:48:05.562Z,26.70
2019-01-08T06:50:36.563Z,11.90
2019-01-08T06:52:50.125Z,14.70
2019-01-08T06:54:59.540Z,13.10
2019-01-08T06:57:19.030Z,15.57
2019-01-08T06:59:34.863Z,22.07
2019-01-08T07:02:12.819Z,22.70
2019-01-08T07:04:24.667Z,11.50
2019-01-08T07:06:41.330Z,16.67
2019-01-08T07:09:09.815Z,15.13
2019-01-08T07:11:41.929Z,16.90
2019-01-08T07:14:00.772Z,15.90
2019-01-08T07:16:18.106Z,13.37
2019-01-08T07:21:33.160Z,13.90
2019-01-08T07:23:53.822Z,8.17
2019-01-08T07:26:09.101Z,12.90
2019-01-08T07:28:22.354Z,11.97
2019-01-08T07:30:41.524Z,13.53
2019-01-08T07:32:53.843Z,17.77
2019-01-08T07:35:29.786Z,11.67
2019-01-08T07:40:14.283Z,19.07
2019-01-08T07:42:27.509Z,11.70
2019-01-08T07:44:40.869Z,20.20
2019-01-08T07:47:16.155Z,12.67
2019-01-08T07:49:34.644Z,12.43
2019-01-08T07:52:00.274Z,17.43
2019-01-08T07:54:19.121Z,17.97
2019-01-08T07:56:35.374Z,12.40
2019-01-08T07:58:51.684Z,12.30
2019-01-08T08:01:05.854Z,11.90
2019-01-08T08:03:27.318Z,13.90
2019-01-08T08:06:18.776Z,11.37
2019-01-08T08:09:02.338Z,17.17
2019-01-08T08:11:17.710Z,9.87
2019-01-08T08:13:48.296Z,14.53
2019-01-08T08:16:18.830Z,9.87
2019-01-08T08:19:04.072Z,10.30
2019-01-08T08:23:51.059Z,14.63
2019-01-08T08:26:04.179Z,12.10
2019-01-08T08:28:31.879Z,10.67
2019-01-08T08:30:45.001Z,10.37
2019-01-08T08:33:25.835Z,10.40
2019-01-08T08:36:27.065Z,8.87
2019-01-08T08:38:47.285Z,10.50
2019-01-08T08:41:20.229Z,12.17
2019-01-08T08:43:55.542Z,11.93
2019-01-08T08:46:16.965Z,9.80
2019-01-08T08:48:29.176Z,10.63
2019-01-08T08:50:52.401Z,11.13
2019-01-08T08:53:16.273Z,12.77
2019-01-08T08:55:44.364Z,10.47
2019-01-08T08:58:04.441Z,10.83
2019-01-08T09:00:38.606Z,12.27
2019-01-08T09:03:18.508Z,5.37
2019-01-08T09:05:25.885Z,10.43
2019-01-08T09:07:58.913Z,11.30
2019-01-08T09:10:23.107Z,6.30
2019-01-08T09:12:36.469Z,11.17
2019-01-08T09:14:49.857Z,9.63
2019-01-08T09:17:12.510Z,5.77
2019-01-08T09:19:24.216Z,8.47
2019-01-08T09:21:38.536Z,12.63
2019-01-08T09:23:58.369Z,11.20
2019-01-08T09:26:31.656Z,4.93
2019-01-08T09:28:49.742Z,12.87
2019-01-08T09:31:38.005Z,7.80
2019-01-08T09:34:01.596Z,13.40
2019-01-08T09:36:21.210Z,12.17
2019-01-08T09:39:05.513Z,12.27
2019-01-08T09:41:20.624Z,10.47
2019-01-08T09:43:57.006Z,10.07
2019-01-08T09:46:19.060Z,10.43
2019-01-08T09:48:47.746Z,9.80
2019-01-08T09:51:24.223Z,10.70
2019-01-08T09:53:53.135Z,7.43
2019-01-08T09:58:50.537Z,9.40
2019-01-08T10:01:04.892Z,8.67
2019-01-08T10:03:20.056Z,11.10
2019-01-08T10:05:35.971Z,12.43
2019-01-08T10:07:44.191Z,12.30
2019-01-08T10:15:14.369Z,7.40
2019-01-08T10:17:30.590Z,8.03
2019-01-08T10:20:02.206Z,8.43
2019-01-08T10:22:19.396Z,7.70
2019-01-08T10:24:51.627Z,10.57
2019-01-08T10:27:08.675Z,8.07
2019-01-08T10:29:42.635Z,11.47
2019-01-08T10:32:28.504Z,6.37
2019-01-08T10:35:10.629Z,8.10
2019-01-08T10:37:51.152Z,7.03
2019-01-08T10:40:19.396Z,7.57
2019-01-08T10:42:54.744Z,10.67
2019-01-08T10:48:10.434Z,7.00
2019-01-08T10:50:33.575Z,8.80
2019-01-08T10:53:09.475Z,10.20
2019-01-08T10:55:51.149Z,5.50
2019-01-08T11:00:45.926Z,8.73
2019-01-08T11:03:09.421Z,8.47
2019-01-08T11:05:26.047Z,10.57
2019-01-08T11:07:47.915Z,10.63
2019-01-08T11:10:11.876Z,12.40
2019-01-08T11:12:53.301Z,10.23
2019-01-08T11:15:52.670Z,13.27
2019-01-08T11:18:07.676Z,9.57
2019-01-08T11:20:29.575Z,10.27
2019-01-08T11:23:10.344Z,10.33
2019-01-08T11:25:48.012Z,10.00
2019-01-08T11:28:10.543Z,9.67
2019-01-08T11:30:29.225Z,5.77
2019-01-08T11:32:43.017Z,9.73
2019-01-08T11:35:09.065Z,9.27
2019-01-08T11:37:24.690Z,4.93
2019-01-08T11:39:47.189Z,8.13
2019-01-08T11:42:09.461Z,7.43
2019-01-08T11:44:28.490Z,3.90
2019-01-08T11:46:52.745Z,5.13
2019-01-08T11:49:17.069Z,7.23
2019-01-08T11:51:28.349Z,5.50
2019-01-08T11:53:42.893Z,8.13
2019-01-08T11:56:04.363Z,9.87
2019-01-08T11:58:17.223Z,7.17
2019-01-08T12:01:30.834Z,7.30
2019-01-08T12:03:44.763Z,7.53
2019-01-08T12:06:21.821Z,10.17
2019-01-08T12:09:05.813Z,7.70
2019-01-08T12:11:49.197Z,7.03
2019-01-08T12:14:12.971Z,7.27
2019-01-08T12:16:29.852Z,8.93
2019-01-08T12:18:48.647Z,9.43
2019-01-08T12:21:03.806Z,8.30
2019-01-08T12:23:19.812Z,8.10
2019-01-08T12:25:41.763Z,9.23
2019-01-08T12:28:02.787Z,7.07
2019-01-08T12:30:31.818Z,10.03
2019-01-08T12:32:50.331Z,7.47
2019-01-08T12:35:21.304Z,9.30
2019-01-08T12:37:36.332Z,7.30
2019-01-08T12:39:55.692Z,6.73
2019-01-08T12:42:13.779Z,7.73
2019-01-08T12:44:30.538Z,9.47
2019-01-08T12:46:45.038Z,13.07
2019-01-08T12:49:04.809Z,8.60
2019-01-08T12:51:26.052Z,9.47
2019-01-08T12:53:54.873Z,7.40
2019-01-08T12:56:17.304Z,7.47
2019-01-08T12:58:45.659Z,9.13
2019-01-08T13:01:00.204Z,5.40
2019-01-08T13:03:15.343Z,7.50
2019-01-08T13:05:36.216Z,7.87
2019-01-08T13:08:05.367Z,5.40
2019-01-08T13:10:28.339Z,9.73
2019-01-08T13:13:00.105Z,6.30
2019-01-08T13:15:24.683Z,7.07
2019-01-08T13:22:36.852Z,9.10
2019-01-08T13:25:11.463Z,7.37
2019-01-08T13:27:52.649Z,13.17
2019-01-08T13:30:51.288Z,8.90
2019-01-08T13:33:07.106Z,9.00
2019-01-08T13:35:19.567Z,5.97
2019-01-08T13:37:54.028Z,12.10
2019-01-08T13:40:27.347Z,7.77
2019-01-08T13:42:59.167Z,9.50
2019-01-08T13:45:13.519Z,15.23
2019-01-08T13:47:30.342Z,9.80
2019-01-08T13:50:01.255Z,6.57
2019-01-08T13:52:15.288Z,6.73
2019-01-08T13:54:36.148Z,12.03
2019-01-08T13:56:47.784Z,9.93
2019-01-08T13:59:34.213Z,9.57
2019-01-08T14:01:48.336Z,7.50
2019-01-08T14:04:05.715Z,7.13
2019-01-08T14:06:24.434Z,10.00
2019-01-08T14:08:52.148Z,8.40
2019-01-08T14:11:01.318Z,12.33
2019-01-08T14:13:56.720Z,6.37
2019-01-08T14:16:18.926Z,6.90
2019-01-08T14:19:05.780Z,7.83
2019-01-08T14:21:17.193Z,5.37
2019-01-08T14:23:29.550Z,5.27
2019-01-08T14:26:10.286Z,4.67
2019-01-08T14:28:49.713Z,2.93
2019-01-08T14:31:13.213Z,5.10
2019-01-08T14:33:33.293Z,8.17
2019-01-08T14:35:50.597Z,10.20
2019-01-08T14:38:37.478Z,6.77
2019-01-08T14:40:49.390Z,8.37
2019-01-08T14:43:14.023Z,10.27
2019-01-08T14:45:30.220Z,11.10
2019-01-08T14:47:49.050Z,7.90
2019-01-08T14:50:03.977Z,8.27
2019-01-08T14:52:30.662Z,8.30
2019-01-08T14:54:50.479Z,7.97
2019-01-08T14:57:06.129Z,7.93
2019-01-08T14:59:26.459Z,6.57
2019-01-08T15:02:24.741Z,6.33
2019-01-08T15:04:46.541Z,7.57
2019-01-08T15:07:29.870Z,6.77
2019-01-08T15:10:03.613Z,5.90
2019-01-08T15:12:19.625Z,5.33
2019-01-08T15:14:43.495Z,6.23
2019-01-08T15:19:38.278Z,11.33
2019-01-08T15:21:58.647Z,12.03
2019-01-08T15:24:10.555Z,13.70
2019-01-08T15:26:33.855Z,9.67
2019-01-08T15:29:25.256Z,10.53
2019-01-08T15:31:39.726Z,10.27
2019-01-08T15:33:57.973Z,10.53
2019-01-08T15:36:17.357Z,16.23
2019-01-08T15:38:32.443Z,11.20
2019-01-08T15:40:50.328Z,11.13
2019-01-08T15:43:04.891Z,10.67
2019-01-08T15:45:23.606Z,9.27
2019-01-08T15:47:43.111Z,13.80
2019-01-08T15:49:57.142Z,12.27
2019-01-08T15:52:29.180Z,12.93
2019-01-08T15:54:44.975Z,11.43
2019-01-08T15:57:17.827Z,13.27
2019-01-08T15:59:47.166Z,9.70
2019-01-08T16:02:17.302Z,11.53
2019-01-08T16:04:48.832Z,8.27
2019-01-08T16:07:05.307Z,6.90
2019-01-08T16:09:42.154Z,10.53
2019-01-08T16:11:54.737Z,11.40
2019-01-08T16:14:18.281Z,13.07
2019-01-08T16:16:39.551Z,8.30
2019-01-08T16:19:02.378Z,8.67
2019-01-08T16:21:18.084Z,14.27
2019-01-08T16:23:41.870Z,7.27
2019-01-08T16:26:18.375Z,10.33
2019-01-08T16:28:36.697Z,12.17
2019-01-08T16:31:05.960Z,9.73
2019-01-08T16:33:18.942Z,11.40
2019-01-08T16:35:32.832Z,15.03
2019-01-08T16:37:54.265Z,10.83
2019-01-08T16:40:17.483Z,10.53
2019-01-08T16:43:12.032Z,15.50
2019-01-08T16:48:17.290Z,12.77
2019-01-08T16:50:33.706Z,11.03
2019-01-08T16:52:49.657Z,5.50
2019-01-08T16:55:09.171Z,9.07
2019-01-08T16:57:40.382Z,9.90
2019-01-08T16:59:57.959Z,11.90
2019-01-08T17:02:16.887Z,8.90
2019-01-08T17:04:31.816Z,10.17
2019-01-08T17:07:05.216Z,11.53
2019-01-08T17:09:16.786Z,10.40
2019-01-08T17:11:38.611Z,7.50
2019-01-08T17:13:56.591Z,6.10
2019-01-08T17:16:26.260Z,4.50
2019-01-08T17:24:18.089Z,3.33
2019-01-08T17:26:47.510Z,2.83
2019-01-08T17:29:07.068Z,4.03
2019-01-08T17:31:19.352Z,1.37
2019-01-08T17:33:45.059Z,3.23
2019-01-08T17:36:10.684Z,5.37
2019-01-08T17:41:31.136Z,3.60
2019-01-08T17:43:47.475Z,5.63
2019-01-08T17:46:07.311Z,4.37
2019-01-08T17:48:27.992Z,3.80
2019-01-08T17:50:47.849Z,6.50
2019-01-08T17:53:11.635Z,11.20
2019-01-08T17:55:32.195Z,8.03
2019-01-08T17:57:52.412Z,9.70
2019-01-08T18:00:05.428Z,9.20
2019-01-08T18:02:36.974Z,8.27
2019-01-08T18:05:14.632Z,17.03
2019-01-08T18:07:38.887Z,15.10
2019-01-08T18:10:00.406Z,15.77
2019-01-08T18:12:19.784Z,16.07
2019-01-08T18:14:34.234Z,13.43
2019-01-08T18:16:51.405Z,15.03
2019-01-08T18:19:14.578Z,14.07
2019-01-08T18:21:35.323Z,15.03
2019-01-08T18:24:11.053Z,18.43
2019-01-08T18:26:37.464Z,12.77
2019-01-08T18:29:08.884Z,16.73
2019-01-08T18:31:26.252Z,12.77
2019-01-08T18:33:41.423Z,18.47
2019-01-08T18:36:01.919Z,15.20
2019-01-08T18:38:21.338Z,18.00
2019-01-08T18:40:41.534Z,11.60
2019-01-08T18:43:03.138Z,13.73
2019-01-08T18:45:22.219Z,16.07
2019-01-08T18:47:44.645Z,12.90
2019-01-08T18:50:01.139Z,15.27
2019-01-08T18:52:37.934Z,14.23
2019-01-08T18:54:50.188Z,15.93
2019-01-08T18:57:28.918Z,11.70
2019-01-08T18:59:49.317Z,12.80
2019-01-08T19:02:08.833Z,13.90
2019-01-08T19:04:40.534Z,18.30
2019-01-08T19:07:05.251Z,16.53
2019-01-08T19:09:41.340Z,11.97
2019-01-08T19:12:04.989Z,17.13
2019-01-08T19:16:52.597Z,16.10
2019-01-08T19:19:13.584Z,11.67
2019-01-08T19:21:44.788Z,10.83
2019-01-08T19:24:07.835Z,16.40
2019-01-08T19:26:29.431Z,11.57
2019-01-08T19:29:12.728Z,16.30
2019-01-08T19:31:35.056Z,12.77
2019-01-08T19:33:45.190Z,15.37
2019-01-08T19:35:57.208Z,14.47
2019-01-08T19:38:12.836Z,15.93
2019-01-08T19:40:24.737Z,15.00
2019-01-08T19:42:40.486Z,17.40
2019-01-08T19:44:59.348Z,19.70
2019-01-08T19:47:39.350Z,13.13
2019-01-08T19:49:57.884Z,14.40
2019-01-08T19:52:15.706Z,16.87
2019-01-08T19:54:33.337Z,14.37
2019-01-08T19:59:41.746Z,9.67
2019-01-08T20:02:04.421Z,6.10
2019-01-08T20:04:22.553Z,8.37
2019-01-08T20:06:42.173Z,11.27
2019-01-08T20:08:51.825Z,8.97
2019-01-08T20:11:14.424Z,8.93
2019-01-08T20:13:35.323Z,7.13
2019-01-08T20:15:51.525Z,8.13
2019-01-08T20:18:09.812Z,7.33
2019-01-08T20:20:32.144Z,10.87
2019-01-08T20:22:44.398Z,10.67
2019-01-08T20:24:59.301Z,9.13
2019-01-08T20:27:14.258Z,10.63
2019-01-08T20:29:33.296Z,13.27
2019-01-08T20:31:46.010Z,9.63
2019-01-08T20:34:15.112Z,12.27
2019-01-08T20:36:30.438Z,12.53
2019-01-08T20:38:55.434Z,14.23
2019-01-08T20:41:14.539Z,12.70
2019-01-08T20:43:34.918Z,11.87
2019-01-08T20:45:53.432Z,10.00
2019-01-08T20:48:04.504Z,15.00
2019-01-08T20:50:36.861Z,12.83
2019-01-08T20:52:54.313Z,13.93
2019-01-08T20:55:17.569Z,13.47
2019-01-08T20:57:59.838Z,13.63
2019-01-08T21:00:48.401Z,12.17
2019-01-08T21:02:59.753Z,9.07
2019-01-08T21:05:12.307Z,5.53
2019-01-08T21:10:08.302Z,9.70
2019-01-08T21:17:22.105Z,6.57
2019-01-08T21:19:27.228Z,6.03
2019-01-08T21:21:32.246Z,6.07
2019-01-08T21:23:37.095Z,9.10
2019-01-08T21:25:41.777Z,13.80
2019-01-08T21:27:46.881Z,5.23
2019-01-08T21:29:51.755Z,8.87
2019-01-08T21:34:29.792Z,8.17
2019-01-08T21:36:36.151Z,7.87
2019-01-08T21:38:44.043Z,9.80
2019-01-08T21:40:59.462Z,12.77
2019-01-08T21:43:21.063Z,16.27
2019-01-08T21:45:48.456Z,11.13
2019-01-08T21:47:56.724Z,9.73
2019-01-08T21:50:16.731Z,14.90
2019-01-08T21:52:25.067Z,12.97
2019-01-08T21:54:47.372Z,17.17
2019-01-08T21:57:03.115Z,8.70
2019-01-08T21:59:17.610Z,13.80
2019-01-08T22:01:29.862Z,15.83
2019-01-08T22:03:41.392Z,17.67
2019-01-08T22:06:05.881Z,14.27
2019-01-08T22:08:32.960Z,11.53
2019-01-08T22:10:44.741Z,14.40
2019-01-08T22:12:50.892Z,12.90
2019-01-08T22:15:07.109Z,14.03
2019-01-08T22:17:20.561Z,15.03
2019-01-08T22:19:33.606Z,12.67
2019-01-08T22:21:49.904Z,11.37
2019-01-08T22:24:05.306Z,10.37
2019-01-08T22:26:13.276Z,11.63
2019-01-08T22:28:22.480Z,9.37
2019-01-08T22:30:39.141Z,8.23
2019-01-08T22:32:50.032Z,8.63
2019-01-08T22:35:23.560Z,7.03
2019-01-08T22:37:43.078Z,6.70
2019-01-08T22:39:52.901Z,6.50
2019-01-08T22:42:01.475Z,6.47
2019-01-08T22:44:32.635Z,6.13
2019-01-08T22:46:44.629Z,11.67
2019-01-08T22:49:12.462Z,12.27
2019-01-08T22:51:24.441Z,9.93
2019-01-08T22:53:37.764Z,8.30
2019-01-08T22:55:51.336Z,10.37
2019-01-08T22:58:03.777Z,8.27
2019-01-08T23:00:40.998Z,13.77
2019-01-08T23:02:52.195Z,13.50
2019-01-08T23:05:17.733Z,11.33
2019-01-08T23:07:29.246Z,7.57
2019-01-08T23:09:40.492Z,10.53
2019-01-08T23:11:52.382Z,14.23
2019-01-08T23:14:07.018Z,10.20
2019-01-08T23:16:20.388Z,7.27
2019-01-08T23:18:42.039Z,8.13
2019-01-08T23:20:52.123Z,9.57
2019-01-08T23:23:11.768Z,8.30
2019-01-08T23:25:25.396Z,5.37
2019-01-08T23:27:37.706Z,7.20
2019-01-08T23:29:49.574Z,11.50
2019-01-08T23:32:05.963Z,7.10
2019-01-08T23:34:20.504Z,8.80
2019-01-08T23:36:30.502Z,9.77
2019-01-08T23:38:43.385Z,6.87
2019-01-08T23:40:57.944Z,9.30
2019-01-08T23:43:13.634Z,7.57
2019-01-08T23:45:32.802Z,11.43
2019-01-08T23:50:20.487Z,11.20
2019-01-08T23:52:45.377Z,12.10
2019-01-08T23:54:56.886Z,7.73
2019-01-08T23:57:08.432Z,13.23
2019-01-08T23:59:21.778Z,7.00
